createdAt,value
2018-07-26T00:01:07.198Z,4.47
2018-07-26T00:03:36.680Z,5.00
2018-07-26T00:06:06.117Z,4.87
2018-07-26T00:08:35.530Z,4.53
2018-07-26T00:11:05.077Z,4.60
2018-07-26T00:13:34.490Z,4.80
2018-07-26T00:16:03.842Z,4.30
2018-07-26T00:18:33.210Z,4.93
2018-07-26T00:21:02.555Z,4.70
2018-07-26T00:23:31.558Z,4.27
2018-07-26T00:26:00.992Z,4.63
2018-07-26T00:28:30.386Z,4.73
2018-07-26T00:30:59.882Z,4.70
2018-07-26T00:33:29.384Z,4.70
2018-07-26T00:35:58.895Z,5.30
2018-07-26T00:38:28.531Z,5.03
2018-07-26T00:40:57.685Z,4.62
2018-07-26T00:43:26.910Z,4.53
2018-07-26T00:45:56.415Z,4.60
2018-07-26T00:48:26.545Z,4.73
2018-07-26T00:50:55.758Z,4.53
2018-07-26T00:53:25.175Z,4.80
2018-07-26T00:55:54.534Z,4.80
2018-07-26T00:58:23.926Z,4.80
2018-07-26T01:00:53.270Z,4.30
2018-07-26T01:03:22.586Z,4.30
2018-07-26T01:05:52.083Z,5.47
2018-07-26T01:08:21.630Z,4.77
2018-07-26T01:10:51.135Z,5.07
2018-07-26T01:13:20.479Z,4.55
2018-07-26T01:15:49.822Z,5.20
2018-07-26T01:18:19.262Z,4.87
2018-07-26T01:20:48.643Z,4.25
2018-07-26T01:23:18.143Z,4.80
2018-07-26T01:25:47.546Z,5.30
2018-07-26T01:28:17.079Z,4.80
2018-07-26T01:30:46.512Z,5.10
2018-07-26T01:33:16.166Z,4.73
2018-07-26T01:35:45.611Z,4.80
2018-07-26T01:38:15.374Z,5.33
2018-07-26T01:40:44.876Z,4.92
2018-07-26T01:43:24.314Z,5.00
2018-07-26T01:45:53.791Z,5.00
2018-07-26T01:48:23.231Z,4.90
2018-07-26T01:50:52.658Z,4.90
2018-07-26T01:53:22.158Z,5.03
2018-07-26T01:55:51.662Z,5.37
2018-07-26T01:58:21.235Z,4.83
2018-07-26T02:03:07.470Z,5.10
2018-07-26T02:05:36.881Z,4.63
2018-07-26T02:08:06.443Z,4.60
2018-07-26T02:10:35.824Z,4.83
2018-07-26T02:13:05.194Z,4.63
2018-07-26T02:15:34.487Z,4.80
2018-07-26T02:18:03.974Z,4.63
2018-07-26T02:20:33.499Z,5.45
2018-07-26T02:23:04.467Z,5.47
2018-07-26T02:25:34.013Z,5.00
2018-07-26T02:28:03.503Z,5.40
2018-07-26T02:30:32.958Z,6.23
2018-07-26T02:33:02.479Z,5.60
2018-07-26T02:35:32.094Z,6.55
2018-07-26T02:38:01.588Z,5.93
2018-07-26T02:40:31.127Z,5.20
2018-07-26T02:43:00.643Z,5.47
2018-07-26T02:45:30.071Z,5.27
2018-07-26T02:47:59.395Z,5.77
2018-07-26T02:50:28.915Z,5.80
2018-07-26T02:52:58.255Z,5.40
2018-07-26T02:55:27.743Z,5.53
2018-07-26T02:57:57.202Z,5.13
2018-07-26T03:00:27.628Z,5.30
2018-07-26T03:02:57.118Z,5.07
2018-07-26T03:05:27.395Z,5.23
2018-07-26T03:07:56.973Z,5.13
2018-07-26T03:10:27.510Z,5.60
2018-07-26T03:12:57.005Z,5.63
2018-07-26T03:17:45.375Z,5.70
2018-07-26T03:20:14.774Z,6.13
2018-07-26T03:22:44.183Z,6.05
2018-07-26T03:25:13.662Z,6.27
2018-07-26T03:27:43.122Z,6.62
2018-07-26T03:30:12.506Z,6.17
2018-07-26T03:32:41.889Z,7.75
2018-07-26T03:35:11.294Z,6.50
2018-07-26T03:37:40.606Z,6.23
2018-07-26T03:40:11.611Z,5.70
2018-07-26T03:42:40.635Z,5.90
2018-07-26T03:45:10.024Z,6.33
2018-07-26T03:47:39.460Z,6.47
2018-07-26T03:50:08.910Z,6.50
2018-07-26T03:52:38.371Z,6.10
2018-07-26T03:55:07.854Z,6.10
2018-07-26T03:57:37.398Z,6.15
2018-07-26T04:00:07.078Z,5.62
2018-07-26T04:02:36.686Z,5.58
2018-07-26T04:05:06.235Z,6.07
2018-07-26T04:07:35.627Z,6.23
2018-07-26T04:10:05.062Z,6.30
2018-07-26T04:12:34.702Z,6.08
2018-07-26T04:15:04.811Z,5.97
2018-07-26T04:17:34.159Z,6.27
2018-07-26T04:20:03.419Z,6.43
2018-07-26T04:22:33.271Z,6.10
2018-07-26T04:25:02.572Z,6.30
2018-07-26T04:27:32.024Z,6.70
2018-07-26T04:30:01.514Z,6.13
2018-07-26T04:32:31.138Z,6.27
2018-07-26T04:35:00.665Z,6.20
2018-07-26T04:37:30.167Z,6.23
2018-07-26T04:39:59.702Z,5.55
2018-07-26T04:42:29.218Z,6.00
2018-07-26T04:44:58.843Z,5.90
2018-07-26T04:47:28.182Z,6.10
2018-07-26T04:49:57.530Z,5.60
2018-07-26T04:52:27.751Z,5.55
2018-07-26T04:54:57.174Z,5.40
2018-07-26T04:57:27.109Z,5.00
2018-07-26T04:59:56.299Z,5.00
2018-07-26T05:02:25.690Z,5.35
2018-07-26T05:04:54.998Z,4.90
2018-07-26T05:07:24.390Z,4.17
2018-07-26T05:09:53.935Z,4.00
2018-07-26T05:12:24.638Z,4.20
2018-07-26T05:14:54.127Z,4.50
2018-07-26T05:17:23.500Z,4.23
2018-07-26T05:19:52.962Z,4.40
2018-07-26T05:22:22.322Z,4.30
2018-07-26T05:24:51.678Z,4.03
2018-07-26T05:27:21.055Z,3.87
2018-07-26T05:29:50.395Z,3.80
2018-07-26T05:32:19.898Z,3.47
2018-07-26T05:34:49.254Z,3.65
2018-07-26T05:37:18.818Z,3.50
2018-07-26T05:39:48.195Z,3.40
2018-07-26T05:42:17.690Z,3.52
2018-07-26T05:44:47.052Z,3.10
2018-07-26T05:47:16.564Z,3.40
2018-07-26T05:49:46.035Z,3.15
2018-07-26T05:52:15.543Z,3.00
2018-07-26T05:54:46.471Z,2.85
2018-07-26T05:57:16.050Z,3.17
2018-07-26T05:59:45.782Z,2.90
2018-07-26T06:02:15.308Z,3.22
2018-07-26T06:04:44.370Z,2.90
2018-07-26T06:07:13.679Z,2.65
2018-07-26T06:09:43.232Z,2.90
2018-07-26T06:12:12.614Z,2.75
2018-07-26T06:14:42.222Z,2.62
2018-07-26T06:17:11.675Z,3.10
2018-07-26T06:19:41.038Z,2.80
2018-07-26T06:22:10.511Z,2.60
2018-07-26T06:24:40.001Z,2.60
2018-07-26T06:27:09.405Z,2.77
2018-07-26T06:29:39.004Z,2.47
2018-07-26T06:32:08.423Z,2.60
2018-07-26T06:34:37.753Z,2.73
2018-07-26T06:37:07.657Z,2.47
2018-07-26T06:39:37.191Z,2.77
2018-07-26T06:42:06.658Z,2.62
2018-07-26T06:44:36.210Z,2.70
2018-07-26T06:47:06.184Z,2.27
2018-07-26T06:49:35.726Z,2.30
2018-07-26T06:52:05.303Z,2.30
2018-07-26T06:54:35.003Z,2.20
2018-07-26T06:57:04.254Z,2.22
2018-07-26T06:59:33.475Z,2.10
2018-07-26T07:02:02.522Z,2.30
2018-07-26T07:04:31.802Z,2.10
2018-07-26T07:07:01.230Z,2.30
2018-07-26T07:09:30.760Z,2.10
2018-07-26T07:12:00.270Z,2.15
2018-07-26T07:14:29.787Z,2.10
2018-07-26T07:16:59.226Z,2.50
2018-07-26T07:19:28.765Z,2.10
2018-07-26T07:21:58.135Z,2.20
2018-07-26T07:24:28.247Z,2.20
2018-07-26T07:26:57.740Z,1.92
2018-07-26T07:29:28.179Z,2.20
2018-07-26T07:31:57.509Z,1.90
2018-07-26T07:34:26.842Z,1.92
2018-07-26T07:36:56.234Z,2.12
2018-07-26T07:39:25.658Z,2.05
2018-07-26T07:41:55.165Z,1.80
2018-07-26T07:44:24.587Z,2.10
2018-07-26T07:46:54.275Z,2.13
2018-07-26T07:49:23.661Z,2.07
2018-07-26T07:51:52.941Z,2.20
2018-07-26T07:54:22.301Z,2.22
2018-07-26T07:56:51.678Z,2.10
2018-07-26T07:59:21.166Z,2.08
2018-07-26T08:01:50.984Z,2.02
2018-07-26T08:04:20.388Z,2.22
2018-07-26T08:06:49.860Z,2.00
2018-07-26T08:09:19.193Z,2.20
2018-07-26T08:11:48.670Z,2.05
2018-07-26T08:14:18.172Z,2.50
2018-07-26T08:16:47.543Z,2.20
2018-07-26T08:19:16.938Z,2.12
2018-07-26T08:21:46.401Z,2.20
2018-07-26T08:24:15.925Z,2.05
2018-07-26T08:26:45.426Z,2.55
2018-07-26T08:29:14.982Z,2.30
2018-07-26T08:31:44.318Z,2.10
2018-07-26T08:34:13.703Z,2.40
2018-07-26T08:36:43.102Z,2.17
2018-07-26T08:39:13.886Z,2.20
2018-07-26T08:41:43.551Z,1.98
2018-07-26T08:44:13.067Z,1.97
2018-07-26T08:46:42.586Z,2.20
2018-07-26T08:49:12.010Z,2.20
2018-07-26T08:51:41.471Z,2.00
2018-07-26T08:54:11.822Z,2.20
2018-07-26T08:56:41.271Z,1.90
2018-07-26T08:59:10.757Z,2.40
2018-07-26T09:01:40.113Z,2.10
2018-07-26T09:04:09.478Z,1.70
2018-07-26T09:06:38.853Z,2.03
2018-07-26T09:09:11.014Z,2.22
2018-07-26T09:11:40.796Z,2.00
2018-07-26T09:14:10.483Z,2.05
2018-07-26T09:16:39.802Z,2.55
2018-07-26T09:19:09.342Z,2.20
2018-07-26T09:21:38.847Z,2.10
2018-07-26T09:24:08.400Z,2.00
2018-07-26T09:26:38.019Z,2.17
2018-07-26T09:29:07.486Z,1.95
2018-07-26T09:31:36.930Z,2.40
2018-07-26T09:34:06.453Z,2.40
2018-07-26T09:36:35.888Z,2.00
2018-07-26T09:39:10.415Z,2.30
2018-07-26T09:41:39.859Z,2.10
2018-07-26T09:44:09.255Z,2.30
2018-07-26T09:46:40.985Z,2.30
2018-07-26T09:49:10.413Z,2.00
2018-07-26T09:51:39.878Z,2.27
2018-07-26T09:54:09.388Z,2.27
2018-07-26T09:56:38.978Z,2.43
2018-07-26T09:59:08.363Z,2.27
2018-07-26T10:01:38.882Z,2.50
2018-07-26T10:04:08.319Z,2.05
2018-07-26T10:06:37.814Z,2.40
2018-07-26T10:09:10.198Z,2.15
2018-07-26T10:11:39.672Z,2.55
2018-07-26T10:14:09.268Z,2.62
2018-07-26T10:16:38.786Z,2.27
2018-07-26T10:19:08.147Z,2.47
2018-07-26T10:21:37.482Z,2.50
2018-07-26T10:24:07.054Z,2.58
2018-07-26T10:26:36.528Z,2.33
2018-07-26T10:29:05.879Z,2.30
2018-07-26T10:31:35.275Z,2.77
2018-07-26T10:34:04.625Z,2.80
2018-07-26T10:36:34.046Z,2.60
2018-07-26T10:39:06.656Z,2.70
2018-07-26T10:41:36.134Z,2.63
2018-07-26T10:44:05.678Z,3.17
2018-07-26T10:46:35.165Z,3.10
2018-07-26T10:49:04.780Z,2.90
2018-07-26T10:51:33.953Z,2.93
2018-07-26T10:54:03.246Z,2.40
2018-07-26T10:56:32.722Z,2.40
2018-07-26T10:59:02.190Z,2.62
2018-07-26T11:01:31.590Z,2.33
2018-07-26T11:04:00.910Z,2.25
2018-07-26T11:06:30.303Z,2.67
2018-07-26T11:08:59.714Z,2.52
2018-07-26T11:11:29.242Z,2.65
2018-07-26T11:13:58.726Z,2.90
2018-07-26T11:16:29.012Z,2.80
2018-07-26T11:18:58.499Z,2.98
2018-07-26T11:21:29.130Z,3.06
2018-07-26T11:23:58.551Z,3.00
2018-07-26T11:26:28.986Z,3.10
2018-07-26T11:28:58.326Z,3.08
2018-07-26T11:34:56.930Z,3.08
2018-07-26T11:37:26.329Z,2.75
2018-07-26T11:39:55.682Z,2.77
2018-07-26T11:42:25.190Z,3.30
2018-07-26T11:44:54.566Z,2.85
2018-07-26T11:47:23.986Z,2.98
2018-07-26T11:49:53.515Z,2.80
2018-07-26T11:52:22.854Z,2.60
2018-07-26T11:54:52.263Z,2.83
2018-07-26T11:57:21.674Z,2.90
2018-07-26T11:59:51.074Z,3.10
2018-07-26T12:02:20.600Z,2.80
2018-07-26T12:04:49.930Z,2.85
2018-07-26T12:07:19.282Z,2.80
2018-07-26T12:12:53.979Z,2.70
2018-07-26T12:15:23.160Z,3.02
2018-07-26T12:20:53.510Z,3.05
2018-07-26T12:23:22.994Z,3.00
2018-07-26T12:25:52.378Z,2.98
2018-07-26T12:28:21.842Z,3.00
2018-07-26T12:30:51.330Z,2.90
2018-07-26T12:33:20.673Z,3.00
2018-07-26T12:35:50.126Z,3.10
2018-07-26T12:38:19.530Z,3.22
2018-07-26T12:40:49.014Z,3.20
2018-07-26T12:43:18.391Z,2.98
2018-07-26T12:45:47.710Z,2.98
2018-07-26T12:48:17.082Z,2.90
2018-07-26T12:50:46.614Z,3.23
2018-07-26T12:53:16.027Z,2.70
2018-07-26T12:55:45.512Z,3.00
2018-07-26T12:58:14.875Z,2.95
2018-07-26T13:00:44.351Z,2.97
2018-07-26T13:03:13.844Z,2.60
2018-07-26T13:05:43.222Z,3.08
2018-07-26T13:08:12.605Z,2.90
2018-07-26T13:10:41.975Z,3.20
2018-07-26T13:13:11.310Z,3.00
2018-07-26T13:15:40.738Z,3.20
2018-07-26T13:18:10.202Z,3.20
2018-07-26T13:20:39.583Z,3.10
2018-07-26T13:23:09.075Z,3.40
2018-07-26T13:25:38.572Z,3.13
2018-07-26T13:28:08.937Z,3.12
2018-07-26T13:30:38.476Z,3.40
2018-07-26T13:33:07.844Z,3.10
2018-07-26T13:35:37.290Z,3.00
2018-07-26T13:38:06.715Z,3.27
2018-07-26T13:40:36.132Z,3.12
2018-07-26T13:43:05.530Z,3.30
2018-07-26T13:45:34.950Z,3.10
2018-07-26T13:48:04.355Z,3.20
2018-07-26T13:50:33.748Z,3.35
2018-07-26T13:53:03.382Z,3.30
2018-07-26T13:55:32.832Z,3.05
2018-07-26T13:58:02.319Z,3.05
2018-07-26T14:00:31.822Z,3.00
2018-07-26T14:03:01.298Z,3.20
2018-07-26T14:05:30.718Z,2.98
2018-07-26T14:08:00.232Z,3.40
2018-07-26T14:10:29.959Z,3.28
2018-07-26T14:12:59.431Z,3.30
2018-07-26T14:15:29.776Z,3.20
2018-07-26T14:17:59.216Z,3.10
2018-07-26T14:20:29.750Z,3.10
2018-07-26T14:22:59.194Z,3.37
2018-07-26T14:25:29.656Z,3.50
2018-07-26T14:27:59.015Z,3.17
2018-07-26T14:30:28.411Z,3.17
2018-07-26T14:32:59.615Z,2.92
2018-07-26T14:35:29.730Z,2.87
2018-07-26T14:37:59.191Z,3.20
2018-07-26T14:40:29.575Z,3.20
2018-07-26T14:42:59.083Z,3.20
2018-07-26T14:45:28.375Z,3.37
2018-07-26T14:47:57.890Z,2.85
2018-07-26T14:50:27.346Z,3.35
2018-07-26T14:52:56.870Z,3.13
2018-07-26T14:55:26.402Z,3.20
2018-07-26T14:57:55.994Z,3.30
2018-07-26T15:00:25.503Z,4.00
2018-07-26T15:02:55.044Z,3.70
2018-07-26T15:05:24.494Z,4.20
2018-07-26T15:07:53.925Z,3.60
2018-07-26T15:10:23.718Z,3.70
2018-07-26T15:12:53.256Z,3.75
2018-07-26T15:15:22.605Z,3.77
2018-07-26T15:17:51.989Z,3.98
2018-07-26T15:20:21.315Z,3.80
2018-07-26T15:22:50.654Z,3.98
2018-07-26T15:25:25.506Z,3.83
2018-07-26T15:27:56.115Z,3.80
2018-07-26T15:30:25.572Z,3.80
2018-07-26T15:32:54.969Z,3.95
2018-07-26T15:35:24.412Z,4.05
2018-07-26T15:37:53.878Z,4.37
2018-07-26T15:40:23.330Z,3.67
2018-07-26T15:42:52.665Z,4.28
2018-07-26T15:45:23.482Z,4.30
2018-07-26T15:47:52.956Z,4.28
2018-07-26T15:50:22.350Z,4.00
2018-07-26T15:52:51.727Z,4.12
2018-07-26T15:55:21.151Z,3.75
2018-07-26T15:57:50.539Z,4.10
2018-07-26T16:00:19.870Z,3.98
2018-07-26T16:02:49.378Z,4.10
2018-07-26T16:05:18.868Z,4.20
2018-07-26T16:07:48.514Z,3.90
2018-07-26T16:10:17.831Z,3.98
2018-07-26T16:12:47.436Z,3.93
2018-07-26T16:15:16.722Z,4.08
2018-07-26T16:17:46.375Z,3.93
2018-07-26T16:20:15.998Z,4.05
2018-07-26T16:22:45.503Z,3.97
2018-07-26T16:25:14.846Z,3.85
2018-07-26T16:27:44.243Z,4.00
2018-07-26T16:30:13.710Z,4.30
2018-07-26T16:32:43.180Z,3.90
2018-07-26T16:35:12.400Z,4.22
2018-07-26T16:37:41.682Z,4.08
2018-07-26T16:40:11.170Z,4.00
2018-07-26T16:42:40.562Z,3.90
2018-07-26T16:45:09.906Z,4.03
2018-07-26T16:47:39.297Z,4.00
2018-07-26T16:50:08.650Z,3.80
2018-07-26T16:52:38.123Z,3.80
2018-07-26T16:55:07.697Z,3.60
2018-07-26T16:57:37.129Z,3.77
2018-07-26T17:00:07.702Z,3.90
2018-07-26T17:02:36.990Z,3.73
2018-07-26T17:05:07.239Z,4.08
2018-07-26T17:07:36.578Z,3.92
2018-07-26T17:10:07.262Z,3.83
2018-07-26T17:12:36.675Z,3.90
2018-07-26T17:15:07.302Z,3.80
2018-07-26T17:17:36.886Z,3.72
2018-07-26T17:20:07.402Z,3.83
2018-07-26T17:22:36.886Z,3.90
2018-07-26T17:25:06.427Z,3.67
2018-07-26T17:27:35.773Z,3.65
2018-07-26T17:30:05.764Z,3.60
2018-07-26T17:32:35.351Z,4.03
2018-07-26T17:35:04.710Z,3.60
2018-07-26T17:37:34.058Z,3.80
2018-07-26T17:40:03.474Z,3.80
2018-07-26T17:42:33.264Z,3.90
2018-07-26T17:45:02.667Z,3.60
2018-07-26T17:47:31.987Z,3.75
2018-07-26T17:50:01.306Z,3.30
2018-07-26T17:52:31.758Z,3.62
2018-07-26T17:55:01.796Z,3.52
2018-07-26T17:57:31.218Z,3.45
2018-07-26T18:00:00.714Z,3.35
2018-07-26T18:02:30.378Z,3.70
2018-07-26T18:04:59.851Z,3.27
2018-07-26T18:07:30.468Z,3.22
2018-07-26T18:09:59.858Z,3.40
2018-07-26T18:12:29.245Z,3.20
2018-07-26T18:14:58.575Z,3.72
2018-07-26T18:17:28.034Z,4.05
2018-07-26T18:19:57.404Z,3.67
2018-07-26T18:22:26.891Z,3.42
2018-07-26T18:24:56.292Z,3.60
2018-07-26T18:27:25.704Z,4.00
2018-07-26T18:29:55.264Z,3.92
2018-07-26T18:32:24.422Z,4.20
2018-07-26T18:34:54.866Z,4.12
2018-07-26T18:37:24.266Z,4.33
2018-07-26T18:39:53.595Z,4.97
2018-07-26T18:42:22.790Z,5.00
2018-07-26T18:44:52.115Z,5.37
2018-07-26T18:47:21.507Z,5.53
2018-07-26T18:49:50.962Z,5.45
2018-07-26T18:52:20.386Z,5.53
2018-07-26T18:54:49.898Z,5.58
2018-07-26T18:57:19.418Z,5.10
2018-07-26T18:59:48.755Z,5.28
2018-07-26T19:02:18.155Z,5.67
2018-07-26T19:04:47.695Z,5.33
2018-07-26T19:07:17.065Z,4.13
2018-07-26T19:09:46.503Z,3.70
2018-07-26T19:12:15.911Z,3.95
2018-07-26T19:14:51.831Z,3.52
2018-07-26T19:17:21.264Z,3.15
2018-07-26T19:19:50.578Z,3.25
2018-07-26T19:22:19.928Z,3.22
2018-07-26T19:24:49.129Z,3.08
2018-07-26T19:27:19.610Z,3.28
2018-07-26T19:29:51.743Z,2.77
2018-07-26T19:32:21.193Z,3.50
2018-07-26T19:34:50.655Z,3.12
2018-07-26T19:37:20.150Z,3.05
2018-07-26T19:39:49.562Z,2.90
2018-07-26T19:42:18.919Z,3.10
2018-07-26T19:44:48.243Z,3.15
2018-07-26T19:47:17.567Z,3.15
2018-07-26T19:49:47.080Z,3.02
2018-07-26T19:52:16.488Z,2.92
2018-07-26T19:54:45.704Z,2.60
2018-07-26T19:57:14.972Z,2.98
2018-07-26T19:59:44.636Z,3.08
2018-07-26T20:02:14.023Z,3.55
2018-07-26T20:04:43.369Z,2.90
2018-07-26T20:07:12.786Z,3.20
2018-07-26T20:09:42.180Z,3.10
2018-07-26T20:12:11.546Z,2.80
2018-07-26T20:14:40.898Z,3.20
2018-07-26T20:17:10.466Z,3.20
2018-07-26T20:19:39.986Z,3.58
2018-07-26T20:22:09.606Z,2.60
2018-07-26T20:24:39.202Z,3.00
2018-07-26T20:27:08.604Z,2.98
2018-07-26T20:29:38.087Z,2.90
2018-07-26T20:32:07.460Z,2.92
2018-07-26T20:34:37.035Z,2.60
2018-07-26T20:37:06.573Z,3.00
2018-07-26T20:39:35.994Z,3.17
2018-07-26T20:42:05.410Z,2.90
2018-07-26T20:44:34.863Z,3.60
2018-07-26T20:47:04.489Z,3.17
2018-07-26T20:49:33.836Z,3.25
2018-07-26T20:52:03.251Z,3.00
2018-07-26T20:54:32.586Z,3.25
2018-07-26T20:57:02.131Z,3.10
2018-07-26T20:59:31.498Z,3.10
2018-07-26T21:02:01.014Z,3.10
2018-07-26T21:04:30.859Z,3.40
2018-07-26T21:07:00.259Z,3.20
2018-07-26T21:09:29.611Z,3.12
2018-07-26T21:11:58.997Z,3.60
2018-07-26T21:14:28.306Z,2.90
2018-07-26T21:16:57.798Z,3.37
2018-07-26T21:19:27.162Z,3.27
2018-07-26T21:21:56.519Z,2.92
2018-07-26T21:24:26.043Z,3.25
2018-07-26T21:26:55.518Z,3.22
2018-07-26T21:29:24.881Z,3.30
2018-07-26T21:31:54.350Z,3.65
2018-07-26T21:34:23.839Z,3.42
2018-07-26T21:36:53.182Z,3.15
2018-07-26T21:39:22.526Z,3.27
2018-07-26T21:41:51.891Z,3.72
2018-07-26T21:44:21.366Z,3.30
2018-07-26T21:46:50.426Z,3.58
2018-07-26T21:49:19.633Z,3.50
2018-07-26T21:51:48.974Z,3.20
2018-07-26T21:54:18.282Z,3.40
2018-07-26T21:56:47.762Z,3.43
2018-07-26T21:59:17.246Z,2.92
2018-07-26T22:01:46.806Z,3.23
2018-07-26T22:04:16.431Z,3.27
2018-07-26T22:06:45.854Z,3.70
2018-07-26T22:09:15.362Z,3.58
2018-07-26T22:11:44.816Z,3.62
2018-07-26T22:14:14.214Z,3.25
2018-07-26T22:16:43.708Z,3.50
2018-07-26T22:19:13.191Z,3.17
2018-07-26T22:21:42.606Z,3.50
2018-07-26T22:24:12.115Z,3.95
2018-07-26T22:26:41.690Z,3.83
2018-07-26T22:29:11.085Z,3.62
2018-07-26T22:31:40.390Z,3.73
2018-07-26T22:34:09.712Z,4.20
2018-07-26T22:36:39.174Z,3.83
2018-07-26T22:39:10.199Z,3.62
2018-07-26T22:41:39.876Z,3.87
2018-07-26T22:44:09.230Z,3.53
2018-07-26T22:46:38.754Z,3.80
2018-07-26T22:49:08.162Z,3.90
2018-07-26T22:51:37.666Z,3.50
2018-07-26T22:54:07.210Z,3.90
2018-07-26T22:56:36.706Z,3.60
2018-07-26T22:59:06.194Z,3.43
2018-07-26T23:01:35.604Z,3.67
2018-07-26T23:04:05.158Z,3.60
2018-07-26T23:06:34.585Z,4.00
2018-07-26T23:09:07.591Z,3.70
2018-07-26T23:11:36.956Z,3.95
2018-07-26T23:14:06.520Z,3.90
2018-07-26T23:16:36.038Z,4.10
2018-07-26T23:19:05.796Z,4.00
2018-07-26T23:21:35.398Z,4.20
2018-07-26T23:24:04.862Z,3.67
2018-07-26T23:26:34.275Z,4.37
2018-07-26T23:29:03.618Z,4.30
2018-07-26T23:31:32.990Z,4.03
2018-07-26T23:34:02.339Z,4.00
2018-07-26T23:36:31.692Z,3.73
2018-07-26T23:39:01.178Z,4.27
2018-07-26T23:41:31.394Z,4.13
2018-07-26T23:44:00.902Z,4.20
2018-07-26T23:46:31.415Z,4.23
2018-07-26T23:49:00.854Z,3.90
2018-07-26T23:51:31.261Z,4.13
2018-07-26T23:54:00.634Z,4.10
2018-07-26T23:56:30.746Z,4.53
2018-07-26T23:58:59.960Z,4.40
